sensor_id;sensor_type;location;lat;lon;timestamp;P1;durP1;ratioP1;P2;durP2;ratioP2
47009;SDS011;59230;54.164;-3.124;2023-05-20T00:00:52;21.52;;;6.90;;
47009;SDS011;59230;54.164;-3.124;2023-05-20T00:03:18;23.52;;;6.88;;
47009;SDS011;59230;54.164;-3.124;2023-05-20T00:05:46;20.33;;;6.72;;
47009;SDS011;59230;54.164;-3.124;2023-05-20T00:08:12;38.25;;;9.63;;
47009;SDS011;59230;54.164;-3.124;2023-05-20T00:10:38;18.85;;;6.50;;
47009;SDS011;59230;54.164;-3.124;2023-05-20T00:13:03;17.35;;;7.55;;
47009;SDS011;59230;54.164;-3.124;2023-05-20T00:15:30;20.65;;;8.27;;
47009;SDS011;59230;54.164;-3.124;2023-05-20T00:17:56;21.25;;;7.70;;
47009;SDS011;59230;54.164;-3.124;2023-05-20T00:20:21;24.10;;;8.60;;
47009;SDS011;59230;54.164;-3.124;2023-05-20T00:22:47;24.25;;;9.50;;
47009;SDS011;59230;54.164;-3.124;2023-05-20T00:25:12;23.52;;;7.40;;
47009;SDS011;59230;54.164;-3.124;2023-05-20T00:27:40;24.85;;;8.27;;
47009;SDS011;59230;54.164;-3.124;2023-05-20T00:30:06;16.98;;;7.00;;
47009;SDS011;59230;54.164;-3.124;2023-05-20T00:32:32;24.05;;;8.23;;
47009;SDS011;59230;54.164;-3.124;2023-05-20T00:34:58;25.17;;;11.02;;
47009;SDS011;59230;54.164;-3.124;2023-05-20T00:37:24;28.05;;;9.52;;
47009;SDS011;59230;54.164;-3.124;2023-05-20T00:39:50;24.10;;;8.85;;
47009;SDS011;59230;54.164;-3.124;2023-05-20T00:42:22;26.65;;;8.48;;
47009;SDS011;59230;54.164;-3.124;2023-05-20T00:44:48;24.35;;;7.53;;
47009;SDS011;59230;54.164;-3.124;2023-05-20T00:47:17;26.83;;;8.23;;
47009;SDS011;59230;54.164;-3.124;2023-05-20T00:49:44;23.40;;;7.13;;
47009;SDS011;59230;54.164;-3.124;2023-05-20T00:52:10;24.92;;;7.40;;
47009;SDS011;59230;54.164;-3.124;2023-05-20T00:54:36;26.80;;;8.10;;
47009;SDS011;59230;54.164;-3.124;2023-05-20T00:57:03;23.58;;;7.40;;
47009;SDS011;59230;54.164;-3.124;2023-05-20T00:59:30;21.65;;;7.57;;
47009;SDS011;59230;54.164;-3.124;2023-05-20T01:01:55;22.27;;;7.18;;
47009;SDS011;59230;54.164;-3.124;2023-05-20T01:04:21;25.13;;;7.50;;
47009;SDS011;59230;54.164;-3.124;2023-05-20T01:06:46;22.00;;;6.93;;
47009;SDS011;59230;54.164;-3.124;2023-05-20T01:09:13;18.85;;;7.20;;
47009;SDS011;59230;54.164;-3.124;2023-05-20T01:11:43;19.92;;;7.47;;
47009;SDS011;59230;54.164;-3.124;2023-05-20T01:14:16;20.58;;;8.15;;
47009;SDS011;59230;54.164;-3.124;2023-05-20T01:16:43;26.90;;;7.88;;
47009;SDS011;59230;54.164;-3.124;2023-05-20T01:19:34;18.98;;;7.43;;
47009;SDS011;59230;54.164;-3.124;2023-05-20T01:22:08;21.70;;;7.53;;
47009;SDS011;59230;54.164;-3.124;2023-05-20T01:27:10;19.77;;;7.23;;
47009;SDS011;59230;54.164;-3.124;2023-05-20T01:29:37;21.27;;;7.35;;
47009;SDS011;59230;54.164;-3.124;2023-05-20T01:32:07;23.92;;;7.97;;
47009;SDS011;59230;54.164;-3.124;2023-05-20T01:34:35;26.52;;;8.43;;
47009;SDS011;59230;54.164;-3.124;2023-05-20T01:37:02;28.15;;;8.45;;
47009;SDS011;59230;54.164;-3.124;2023-05-20T01:39:29;20.80;;;7.20;;
47009;SDS011;59230;54.164;-3.124;2023-05-20T01:41:55;22.20;;;7.82;;
47009;SDS011;59230;54.164;-3.124;2023-05-20T01:44:21;22.80;;;8.02;;
47009;SDS011;59230;54.164;-3.124;2023-05-20T01:46:48;21.65;;;7.63;;
47009;SDS011;59230;54.164;-3.124;2023-05-20T01:49:14;30.27;;;9.05;;
47009;SDS011;59230;54.164;-3.124;2023-05-20T01:51:39;32.20;;;9.10;;
47009;SDS011;59230;54.164;-3.124;2023-05-20T01:54:05;29.58;;;7.90;;
47009;SDS011;59230;54.164;-3.124;2023-05-20T01:56:30;32.70;;;9.38;;
47009;SDS011;59230;54.164;-3.124;2023-05-20T01:58:56;25.25;;;8.10;;
47009;SDS011;59230;54.164;-3.124;2023-05-20T02:01:21;27.25;;;8.57;;
47009;SDS011;59230;54.164;-3.124;2023-05-20T02:03:46;21.67;;;8.38;;
47009;SDS011;59230;54.164;-3.124;2023-05-20T02:06:12;20.30;;;7.47;;
47009;SDS011;59230;54.164;-3.124;2023-05-20T02:08:37;25.25;;;7.70;;
47009;SDS011;59230;54.164;-3.124;2023-05-20T02:11:03;27.58;;;7.95;;
47009;SDS011;59230;54.164;-3.124;2023-05-20T02:13:28;23.23;;;7.68;;
47009;SDS011;59230;54.164;-3.124;2023-05-20T02:15:54;20.17;;;7.03;;
47009;SDS011;59230;54.164;-3.124;2023-05-20T02:18:19;17.25;;;6.97;;
47009;SDS011;59230;54.164;-3.124;2023-05-20T02:20:45;15.75;;;7.03;;
47009;SDS011;59230;54.164;-3.124;2023-05-20T02:23:10;17.75;;;6.53;;
47009;SDS011;59230;54.164;-3.124;2023-05-20T02:25:36;27.70;;;7.10;;
47009;SDS011;59230;54.164;-3.124;2023-05-20T02:28:01;19.27;;;6.88;;
47009;SDS011;59230;54.164;-3.124;2023-05-20T02:30:29;23.42;;;6.90;;
47009;SDS011;59230;54.164;-3.124;2023-05-20T02:32:55;22.70;;;7.68;;
47009;SDS011;59230;54.164;-3.124;2023-05-20T02:35:21;20.13;;;7.63;;
47009;SDS011;59230;54.164;-3.124;2023-05-20T02:37:47;20.52;;;6.90;;
47009;SDS011;59230;54.164;-3.124;2023-05-20T02:40:12;14.27;;;6.80;;
47009;SDS011;59230;54.164;-3.124;2023-05-20T02:42:39;18.40;;;6.60;;
47009;SDS011;59230;54.164;-3.124;2023-05-20T02:45:05;27.48;;;7.03;;
47009;SDS011;59230;54.164;-3.124;2023-05-20T02:47:31;18.98;;;6.80;;
47009;SDS011;59230;54.164;-3.124;2023-05-20T02:49:56;20.00;;;7.03;;
47009;SDS011;59230;54.164;-3.124;2023-05-20T02:52:22;22.40;;;7.25;;
47009;SDS011;59230;54.164;-3.124;2023-05-20T02:54:47;22.30;;;6.45;;
47009;SDS011;59230;54.164;-3.124;2023-05-20T02:57:12;18.35;;;6.30;;
47009;SDS011;59230;54.164;-3.124;2023-05-20T02:59:38;26.00;;;7.00;;
47009;SDS011;59230;54.164;-3.124;2023-05-20T03:02:03;19.92;;;6.55;;
47009;SDS011;59230;54.164;-3.124;2023-05-20T03:04:29;20.17;;;7.07;;
47009;SDS011;59230;54.164;-3.124;2023-05-20T03:06:55;17.00;;;7.20;;
47009;SDS011;59230;54.164;-3.124;2023-05-20T03:09:22;22.60;;;7.28;;
47009;SDS011;59230;54.164;-3.124;2023-05-20T03:11:48;20.38;;;6.55;;
47009;SDS011;59230;54.164;-3.124;2023-05-20T03:14:14;15.32;;;6.63;;
47009;SDS011;59230;54.164;-3.124;2023-05-20T03:16:40;17.30;;;6.30;;
47009;SDS011;59230;54.164;-3.124;2023-05-20T03:19:05;22.38;;;6.35;;
47009;SDS011;59230;54.164;-3.124;2023-05-20T03:21:31;21.17;;;7.28;;
47009;SDS011;59230;54.164;-3.124;2023-05-20T03:23:56;17.98;;;6.20;;
47009;SDS011;59230;54.164;-3.124;2023-05-20T03:26:22;18.02;;;6.65;;
47009;SDS011;59230;54.164;-3.124;2023-05-20T03:28:47;15.13;;;5.93;;
47009;SDS011;59230;54.164;-3.124;2023-05-20T03:31:13;21.52;;;7.05;;
47009;SDS011;59230;54.164;-3.124;2023-05-20T03:33:38;20.20;;;6.50;;
47009;SDS011;59230;54.164;-3.124;2023-05-20T03:36:04;22.40;;;6.90;;
47009;SDS011;59230;54.164;-3.124;2023-05-20T03:38:30;20.95;;;7.45;;
47009;SDS011;59230;54.164;-3.124;2023-05-20T03:40:56;26.40;;;7.40;;
47009;SDS011;59230;54.164;-3.124;2023-05-20T03:43:21;21.13;;;7.60;;
47009;SDS011;59230;54.164;-3.124;2023-05-20T03:45:46;20.98;;;6.72;;
47009;SDS011;59230;54.164;-3.124;2023-05-20T03:48:12;25.02;;;7.80;;
47009;SDS011;59230;54.164;-3.124;2023-05-20T03:50:37;24.65;;;7.22;;
47009;SDS011;59230;54.164;-3.124;2023-05-20T03:53:03;19.58;;;6.10;;
47009;SDS011;59230;54.164;-3.124;2023-05-20T03:55:28;17.58;;;6.13;;
47009;SDS011;59230;54.164;-3.124;2023-05-20T03:57:54;25.92;;;7.90;;
47009;SDS011;59230;54.164;-3.124;2023-05-20T04:00:19;19.77;;;6.63;;
47009;SDS011;59230;54.164;-3.124;2023-05-20T04:02:45;18.60;;;6.50;;
47009;SDS011;59230;54.164;-3.124;2023-05-20T04:05:10;24.42;;;6.90;;
47009;SDS011;59230;54.164;-3.124;2023-05-20T04:07:36;23.05;;;7.63;;
47009;SDS011;59230;54.164;-3.124;2023-05-20T04:10:02;25.20;;;8.45;;
47009;SDS011;59230;54.164;-3.124;2023-05-20T04:12:28;24.60;;;7.60;;
47009;SDS011;59230;54.164;-3.124;2023-05-20T04:14:58;27.67;;;8.15;;
47009;SDS011;59230;54.164;-3.124;2023-05-20T04:17:27;20.27;;;6.78;;
47009;SDS011;59230;54.164;-3.124;2023-05-20T04:19:56;23.00;;;6.78;;
47009;SDS011;59230;54.164;-3.124;2023-05-20T04:22:23;22.00;;;7.38;;
47009;SDS011;59230;54.164;-3.124;2023-05-20T04:24:49;20.15;;;6.25;;
47009;SDS011;59230;54.164;-3.124;2023-05-20T04:27:15;19.45;;;6.75;;
47009;SDS011;59230;54.164;-3.124;2023-05-20T04:29:41;18.80;;;6.55;;
47009;SDS011;59230;54.164;-3.124;2023-05-20T04:32:11;20.95;;;6.63;;
47009;SDS011;59230;54.164;-3.124;2023-05-20T04:34:37;16.38;;;6.10;;
47009;SDS011;59230;54.164;-3.124;2023-05-20T04:37:03;25.27;;;7.40;;
47009;SDS011;59230;54.164;-3.124;2023-05-20T04:39:28;28.77;;;7.03;;
47009;SDS011;59230;54.164;-3.124;2023-05-20T04:41:54;21.95;;;7.05;;
47009;SDS011;59230;54.164;-3.124;2023-05-20T04:44:19;25.38;;;7.75;;
47009;SDS011;59230;54.164;-3.124;2023-05-20T04:46:45;25.75;;;7.10;;
47009;SDS011;59230;54.164;-3.124;2023-05-20T04:49:10;20.25;;;7.40;;
47009;SDS011;59230;54.164;-3.124;2023-05-20T04:51:36;17.73;;;7.00;;
47009;SDS011;59230;54.164;-3.124;2023-05-20T04:54:01;19.23;;;6.57;;
47009;SDS011;59230;54.164;-3.124;2023-05-20T04:56:27;21.52;;;6.88;;
47009;SDS011;59230;54.164;-3.124;2023-05-20T04:58:52;20.17;;;6.93;;
47009;SDS011;59230;54.164;-3.124;2023-05-20T05:01:18;22.40;;;6.93;;
47009;SDS011;59230;54.164;-3.124;2023-05-20T05:03:43;21.80;;;6.95;;
47009;SDS011;59230;54.164;-3.124;2023-05-20T05:06:09;27.30;;;7.30;;
47009;SDS011;59230;54.164;-3.124;2023-05-20T05:08:34;21.52;;;8.30;;
47009;SDS011;59230;54.164;-3.124;2023-05-20T05:11:00;29.77;;;8.82;;
47009;SDS011;59230;54.164;-3.124;2023-05-20T05:13:25;33.25;;;10.25;;
47009;SDS011;59230;54.164;-3.124;2023-05-20T05:15:57;25.48;;;10.23;;
47009;SDS011;59230;54.164;-3.124;2023-05-20T05:18:23;23.80;;;9.73;;
47009;SDS011;59230;54.164;-3.124;2023-05-20T05:20:49;21.23;;;9.80;;
47009;SDS011;59230;54.164;-3.124;2023-05-20T05:23:14;27.50;;;11.85;;
47009;SDS011;59230;54.164;-3.124;2023-05-20T05:25:40;26.85;;;11.68;;
47009;SDS011;59230;54.164;-3.124;2023-05-20T05:28:05;26.27;;;11.05;;
47009;SDS011;59230;54.164;-3.124;2023-05-20T05:30:31;25.88;;;12.02;;
47009;SDS011;59230;54.164;-3.124;2023-05-20T05:32:56;19.88;;;11.63;;
47009;SDS011;59230;54.164;-3.124;2023-05-20T05:35:21;24.80;;;12.23;;
47009;SDS011;59230;54.164;-3.124;2023-05-20T05:37:47;26.05;;;11.73;;
47009;SDS011;59230;54.164;-3.124;2023-05-20T05:40:12;24.23;;;10.90;;
47009;SDS011;59230;54.164;-3.124;2023-05-20T05:42:38;25.10;;;11.95;;
47009;SDS011;59230;54.164;-3.124;2023-05-20T05:45:03;26.63;;;11.93;;
47009;SDS011;59230;54.164;-3.124;2023-05-20T05:47:30;25.45;;;9.82;;
47009;SDS011;59230;54.164;-3.124;2023-05-20T05:49:56;23.90;;;9.48;;
47009;SDS011;59230;54.164;-3.124;2023-05-20T05:52:23;22.75;;;8.80;;
47009;SDS011;59230;54.164;-3.124;2023-05-20T05:54:49;16.30;;;7.97;;
47009;SDS011;59230;54.164;-3.124;2023-05-20T05:57:15;20.73;;;7.10;;
47009;SDS011;59230;54.164;-3.124;2023-05-20T05:59:40;18.02;;;6.70;;
47009;SDS011;59230;54.164;-3.124;2023-05-20T06:02:05;19.65;;;6.28;;
47009;SDS011;59230;54.164;-3.124;2023-05-20T06:04:31;21.33;;;6.75;;
47009;SDS011;59230;54.164;-3.124;2023-05-20T06:06:57;21.77;;;6.20;;
47009;SDS011;59230;54.164;-3.124;2023-05-20T06:09:22;18.00;;;5.90;;
47009;SDS011;59230;54.164;-3.124;2023-05-20T06:11:48;19.00;;;6.55;;
47009;SDS011;59230;54.164;-3.124;2023-05-20T06:14:13;16.85;;;6.50;;
47009;SDS011;59230;54.164;-3.124;2023-05-20T06:16:38;16.92;;;6.20;;
47009;SDS011;59230;54.164;-3.124;2023-05-20T06:19:04;20.20;;;6.43;;
47009;SDS011;59230;54.164;-3.124;2023-05-20T06:21:30;19.85;;;6.35;;
47009;SDS011;59230;54.164;-3.124;2023-05-20T06:23:56;15.63;;;6.18;;
47009;SDS011;59230;54.164;-3.124;2023-05-20T06:26:22;17.95;;;7.25;;
47009;SDS011;59230;54.164;-3.124;2023-05-20T06:28:47;20.63;;;7.57;;
47009;SDS011;59230;54.164;-3.124;2023-05-20T06:31:13;21.65;;;7.85;;
47009;SDS011;59230;54.164;-3.124;2023-05-20T06:33:38;22.83;;;7.95;;
47009;SDS011;59230;54.164;-3.124;2023-05-20T06:36:04;18.40;;;8.38;;
47009;SDS011;59230;54.164;-3.124;2023-05-20T06:38:29;21.17;;;8.70;;
47009;SDS011;59230;54.164;-3.124;2023-05-20T06:40:55;21.95;;;9.15;;
47009;SDS011;59230;54.164;-3.124;2023-05-20T06:43:20;18.08;;;8.50;;
47009;SDS011;59230;54.164;-3.124;2023-05-20T06:45:46;18.40;;;8.93;;
47009;SDS011;59230;54.164;-3.124;2023-05-20T06:48:11;20.23;;;8.57;;
47009;SDS011;59230;54.164;-3.124;2023-05-20T06:50:37;19.85;;;9.10;;
47009;SDS011;59230;54.164;-3.124;2023-05-20T06:53:02;17.20;;;8.48;;
47009;SDS011;59230;54.164;-3.124;2023-05-20T06:55:28;23.95;;;8.82;;
47009;SDS011;59230;54.164;-3.124;2023-05-20T06:57:54;15.45;;;8.43;;
47009;SDS011;59230;54.164;-3.124;2023-05-20T07:00:19;18.13;;;8.90;;
47009;SDS011;59230;54.164;-3.124;2023-05-20T07:02:44;20.35;;;9.07;;
47009;SDS011;59230;54.164;-3.124;2023-05-20T07:05:10;17.17;;;7.97;;
47009;SDS011;59230;54.164;-3.124;2023-05-20T07:07:36;14.75;;;8.10;;
47009;SDS011;59230;54.164;-3.124;2023-05-20T07:10:01;15.90;;;8.05;;
47009;SDS011;59230;54.164;-3.124;2023-05-20T07:12:29;26.38;;;7.93;;
47009;SDS011;59230;54.164;-3.124;2023-05-20T07:14:55;17.55;;;8.73;;
47009;SDS011;59230;54.164;-3.124;2023-05-20T07:17:21;17.95;;;8.55;;
47009;SDS011;59230;54.164;-3.124;2023-05-20T07:19:47;17.65;;;8.40;;
47009;SDS011;59230;54.164;-3.124;2023-05-20T07:22:12;17.52;;;8.65;;
47009;SDS011;59230;54.164;-3.124;2023-05-20T07:24:37;20.90;;;9.13;;
47009;SDS011;59230;54.164;-3.124;2023-05-20T07:27:03;16.15;;;8.32;;
47009;SDS011;59230;54.164;-3.124;2023-05-20T07:29:29;21.63;;;9.00;;
47009;SDS011;59230;54.164;-3.124;2023-05-20T07:31:54;19.58;;;9.23;;
47009;SDS011;59230;54.164;-3.124;2023-05-20T07:34:19;18.20;;;8.30;;
47009;SDS011;59230;54.164;-3.124;2023-05-20T07:36:46;16.42;;;8.35;;
47009;SDS011;59230;54.164;-3.124;2023-05-20T07:39:12;15.23;;;8.77;;
47009;SDS011;59230;54.164;-3.124;2023-05-20T07:41:38;14.88;;;8.35;;
47009;SDS011;59230;54.164;-3.124;2023-05-20T07:44:04;17.67;;;8.88;;
47009;SDS011;59230;54.164;-3.124;2023-05-20T07:46:33;16.17;;;9.27;;
47009;SDS011;59230;54.164;-3.124;2023-05-20T07:48:58;18.50;;;9.63;;
47009;SDS011;59230;54.164;-3.124;2023-05-20T07:51:24;20.30;;;9.65;;
47009;SDS011;59230;54.164;-3.124;2023-05-20T07:53:49;16.20;;;9.38;;
47009;SDS011;59230;54.164;-3.124;2023-05-20T07:56:15;17.38;;;9.00;;
47009;SDS011;59230;54.164;-3.124;2023-05-20T07:58:41;15.77;;;9.27;;
47009;SDS011;59230;54.164;-3.124;2023-05-20T08:01:06;16.50;;;9.05;;
47009;SDS011;59230;54.164;-3.124;2023-05-20T08:03:33;15.75;;;9.55;;
47009;SDS011;59230;54.164;-3.124;2023-05-20T08:05:59;19.80;;;9.48;;
47009;SDS011;59230;54.164;-3.124;2023-05-20T08:15:08;13.82;;;8.77;;
47009;SDS011;59230;54.164;-3.124;2023-05-20T08:17:34;17.17;;;9.77;;
47009;SDS011;59230;54.164;-3.124;2023-05-20T08:20:00;21.05;;;10.45;;
47009;SDS011;59230;54.164;-3.124;2023-05-20T08:22:26;18.10;;;8.98;;
47009;SDS011;59230;54.164;-3.124;2023-05-20T08:24:51;18.00;;;9.45;;
47009;SDS011;59230;54.164;-3.124;2023-05-20T08:27:17;20.95;;;9.55;;
47009;SDS011;59230;54.164;-3.124;2023-05-20T08:29:43;17.25;;;8.88;;
47009;SDS011;59230;54.164;-3.124;2023-05-20T08:32:09;14.27;;;8.73;;
47009;SDS011;59230;54.164;-3.124;2023-05-20T08:34:35;16.00;;;9.00;;
47009;SDS011;59230;54.164;-3.124;2023-05-20T08:37:01;17.80;;;9.45;;
47009;SDS011;59230;54.164;-3.124;2023-05-20T08:39:29;20.30;;;9.30;;
47009;SDS011;59230;54.164;-3.124;2023-05-20T08:41:58;21.70;;;10.52;;
47009;SDS011;59230;54.164;-3.124;2023-05-20T08:54:01;18.05;;;8.77;;
47009;SDS011;59230;54.164;-3.124;2023-05-20T08:56:54;16.02;;;8.68;;
47009;SDS011;59230;54.164;-3.124;2023-05-20T08:59:24;18.63;;;9.93;;
47009;SDS011;59230;54.164;-3.124;2023-05-20T09:02:10;16.50;;;9.00;;
47009;SDS011;59230;54.164;-3.124;2023-05-20T09:05:04;18.73;;;9.95;;
47009;SDS011;59230;54.164;-3.124;2023-05-20T09:14:38;17.70;;;9.75;;
47009;SDS011;59230;54.164;-3.124;2023-05-20T10:48:18;14.45;;;7.22;;
47009;SDS011;59230;54.164;-3.124;2023-05-20T10:51:03;17.17;;;6.78;;
47009;SDS011;59230;54.164;-3.124;2023-05-20T10:53:37;13.75;;;6.90;;
47009;SDS011;59230;54.164;-3.124;2023-05-20T10:56:25;11.07;;;7.20;;
47009;SDS011;59230;54.164;-3.124;2023-05-20T10:58:51;11.52;;;7.22;;
47009;SDS011;59230;54.164;-3.124;2023-05-20T11:01:18;11.38;;;6.47;;
47009;SDS011;59230;54.164;-3.124;2023-05-20T11:03:48;11.23;;;7.40;;
47009;SDS011;59230;54.164;-3.124;2023-05-20T11:06:27;10.95;;;6.30;;
47009;SDS011;59230;54.164;-3.124;2023-05-20T11:08:53;10.32;;;7.15;;
47009;SDS011;59230;54.164;-3.124;2023-05-20T11:11:20;10.05;;;5.95;;
47009;SDS011;59230;54.164;-3.124;2023-05-20T11:13:49;10.90;;;6.78;;
47009;SDS011;59230;54.164;-3.124;2023-05-20T11:16:22;11.48;;;6.95;;
47009;SDS011;59230;54.164;-3.124;2023-05-20T11:18:48;9.90;;;6.47;;
47009;SDS011;59230;54.164;-3.124;2023-05-20T11:21:14;11.60;;;6.78;;
47009;SDS011;59230;54.164;-3.124;2023-05-20T11:23:40;8.95;;;6.85;;
47009;SDS011;59230;54.164;-3.124;2023-05-20T11:26:05;12.15;;;6.88;;
47009;SDS011;59230;54.164;-3.124;2023-05-20T11:28:31;13.63;;;7.20;;
47009;SDS011;59230;54.164;-3.124;2023-05-20T11:30:58;9.68;;;6.07;;
47009;SDS011;59230;54.164;-3.124;2023-05-20T11:33:24;10.60;;;6.00;;
47009;SDS011;59230;54.164;-3.124;2023-05-20T11:35:51;9.90;;;5.50;;
47009;SDS011;59230;54.164;-3.124;2023-05-20T11:38:18;9.82;;;6.18;;
47009;SDS011;59230;54.164;-3.124;2023-05-20T11:40:45;11.63;;;6.53;;
47009;SDS011;59230;54.164;-3.124;2023-05-20T11:43:11;10.57;;;6.95;;
47009;SDS011;59230;54.164;-3.124;2023-05-20T11:45:40;10.15;;;6.35;;
47009;SDS011;59230;54.164;-3.124;2023-05-20T11:48:07;10.38;;;6.82;;
47009;SDS011;59230;54.164;-3.124;2023-05-20T11:50:36;11.45;;;6.40;;
47009;SDS011;59230;54.164;-3.124;2023-05-20T11:53:05;9.20;;;6.43;;
47009;SDS011;59230;54.164;-3.124;2023-05-20T11:55:32;11.60;;;7.25;;
47009;SDS011;59230;54.164;-3.124;2023-05-20T11:57:59;10.43;;;6.10;;
47009;SDS011;59230;54.164;-3.124;2023-05-20T12:00:27;8.98;;;5.70;;
47009;SDS011;59230;54.164;-3.124;2023-05-20T12:02:52;8.70;;;5.70;;
47009;SDS011;59230;54.164;-3.124;2023-05-20T12:05:18;8.43;;;5.72;;
47009;SDS011;59230;54.164;-3.124;2023-05-20T12:07:44;10.73;;;5.70;;
47009;SDS011;59230;54.164;-3.124;2023-05-20T12:10:10;13.07;;;5.85;;
47009;SDS011;59230;54.164;-3.124;2023-05-20T12:12:35;12.18;;;5.47;;
47009;SDS011;59230;54.164;-3.124;2023-05-20T12:15:02;10.68;;;5.40;;
47009;SDS011;59230;54.164;-3.124;2023-05-20T12:17:28;9.88;;;5.22;;
47009;SDS011;59230;54.164;-3.124;2023-05-20T12:19:53;9.20;;;5.65;;
47009;SDS011;59230;54.164;-3.124;2023-05-20T12:22:19;8.45;;;5.22;;
47009;SDS011;59230;54.164;-3.124;2023-05-20T12:24:44;9.05;;;5.57;;
47009;SDS011;59230;54.164;-3.124;2023-05-20T12:27:10;11.18;;;4.97;;
47009;SDS011;59230;54.164;-3.124;2023-05-20T12:29:36;9.02;;;5.22;;
47009;SDS011;59230;54.164;-3.124;2023-05-20T12:32:02;8.32;;;4.90;;
47009;SDS011;59230;54.164;-3.124;2023-05-20T12:34:27;7.38;;;4.03;;
47009;SDS011;59230;54.164;-3.124;2023-05-20T12:36:54;9.68;;;4.43;;
47009;SDS011;59230;54.164;-3.124;2023-05-20T12:39:19;7.68;;;3.92;;
47009;SDS011;59230;54.164;-3.124;2023-05-20T12:41:45;8.45;;;4.20;;
47009;SDS011;59230;54.164;-3.124;2023-05-20T12:44:10;8.48;;;5.03;;
47009;SDS011;59230;54.164;-3.124;2023-05-20T12:46:36;8.57;;;4.53;;
47009;SDS011;59230;54.164;-3.124;2023-05-20T12:49:02;7.43;;;4.88;;
47009;SDS011;59230;54.164;-3.124;2023-05-20T12:51:28;7.28;;;4.53;;
47009;SDS011;59230;54.164;-3.124;2023-05-20T12:53:53;8.52;;;5.22;;
47009;SDS011;59230;54.164;-3.124;2023-05-20T12:56:18;10.02;;;4.68;;
47009;SDS011;59230;54.164;-3.124;2023-05-20T12:58:45;7.95;;;4.60;;
47009;SDS011;59230;54.164;-3.124;2023-05-20T13:01:10;8.63;;;4.88;;
47009;SDS011;59230;54.164;-3.124;2023-05-20T13:03:36;8.32;;;4.78;;
47009;SDS011;59230;54.164;-3.124;2023-05-20T13:06:01;8.85;;;5.38;;
47009;SDS011;59230;54.164;-3.124;2023-05-20T13:08:27;8.32;;;5.03;;
47009;SDS011;59230;54.164;-3.124;2023-05-20T13:10:53;7.72;;;4.88;;
47009;SDS011;59230;54.164;-3.124;2023-05-20T13:13:18;13.38;;;5.65;;
47009;SDS011;59230;54.164;-3.124;2023-05-20T13:15:48;9.38;;;5.50;;
47009;SDS011;59230;54.164;-3.124;2023-05-20T13:18:15;7.15;;;4.65;;
47009;SDS011;59230;54.164;-3.124;2023-05-20T13:20:43;9.57;;;5.00;;
47009;SDS011;59230;54.164;-3.124;2023-05-20T13:23:09;7.43;;;4.88;;
47009;SDS011;59230;54.164;-3.124;2023-05-20T13:25:35;10.98;;;5.72;;
47009;SDS011;59230;54.164;-3.124;2023-05-20T13:28:01;8.95;;;5.63;;
47009;SDS011;59230;54.164;-3.124;2023-05-20T13:30:27;10.77;;;6.70;;
47009;SDS011;59230;54.164;-3.124;2023-05-20T13:32:52;18.15;;;10.50;;
47009;SDS011;59230;54.164;-3.124;2023-05-20T13:35:18;15.45;;;11.00;;
47009;SDS011;59230;54.164;-3.124;2023-05-20T13:37:44;18.30;;;10.35;;
47009;SDS011;59230;54.164;-3.124;2023-05-20T13:40:10;14.00;;;9.25;;
47009;SDS011;59230;54.164;-3.124;2023-05-20T13:42:36;13.07;;;7.18;;
47009;SDS011;59230;54.164;-3.124;2023-05-20T13:45:02;19.00;;;10.23;;
47009;SDS011;59230;54.164;-3.124;2023-05-20T13:47:27;14.88;;;10.25;;
47009;SDS011;59230;54.164;-3.124;2023-05-20T13:49:53;14.98;;;10.52;;
47009;SDS011;59230;54.164;-3.124;2023-05-20T13:52:18;13.85;;;9.40;;
47009;SDS011;59230;54.164;-3.124;2023-05-20T13:54:44;17.73;;;10.93;;
47009;SDS011;59230;54.164;-3.124;2023-05-20T13:57:11;17.35;;;10.65;;
47009;SDS011;59230;54.164;-3.124;2023-05-20T13:59:37;18.73;;;11.15;;
47009;SDS011;59230;54.164;-3.124;2023-05-20T14:02:02;17.20;;;10.50;;
47009;SDS011;59230;54.164;-3.124;2023-05-20T14:04:28;13.85;;;9.70;;
47009;SDS011;59230;54.164;-3.124;2023-05-20T14:06:55;17.77;;;10.68;;
47009;SDS011;59230;54.164;-3.124;2023-05-20T14:09:20;16.30;;;9.93;;
47009;SDS011;59230;54.164;-3.124;2023-05-20T14:11:46;18.17;;;9.05;;
47009;SDS011;59230;54.164;-3.124;2023-05-20T14:14:11;16.23;;;11.00;;
47009;SDS011;59230;54.164;-3.124;2023-05-20T14:16:36;21.83;;;10.48;;
47009;SDS011;59230;54.164;-3.124;2023-05-20T14:19:03;15.15;;;10.30;;
47009;SDS011;59230;54.164;-3.124;2023-05-20T14:21:29;20.38;;;10.20;;
47009;SDS011;59230;54.164;-3.124;2023-05-20T14:23:56;14.80;;;10.00;;
47009;SDS011;59230;54.164;-3.124;2023-05-20T14:26:22;13.48;;;8.93;;
47009;SDS011;59230;54.164;-3.124;2023-05-20T14:28:47;14.73;;;9.40;;
47009;SDS011;59230;54.164;-3.124;2023-05-20T14:31:13;16.10;;;8.18;;
47009;SDS011;59230;54.164;-3.124;2023-05-20T14:33:38;13.20;;;7.80;;
47009;SDS011;59230;54.164;-3.124;2023-05-20T14:36:04;15.75;;;9.10;;
47009;SDS011;59230;54.164;-3.124;2023-05-20T14:38:29;14.77;;;8.77;;
47009;SDS011;59230;54.164;-3.124;2023-05-20T14:40:55;17.92;;;10.27;;
47009;SDS011;59230;54.164;-3.124;2023-05-20T14:43:20;18.65;;;10.20;;
47009;SDS011;59230;54.164;-3.124;2023-05-20T14:45:46;16.52;;;9.02;;
47009;SDS011;59230;54.164;-3.124;2023-05-20T14:48:12;13.07;;;8.50;;
47009;SDS011;59230;54.164;-3.124;2023-05-20T14:50:38;13.45;;;7.93;;
47009;SDS011;59230;54.164;-3.124;2023-05-20T14:53:03;15.75;;;7.45;;
47009;SDS011;59230;54.164;-3.124;2023-05-20T14:55:29;12.55;;;7.80;;
47009;SDS011;59230;54.164;-3.124;2023-05-20T14:57:54;11.60;;;6.68;;
47009;SDS011;59230;54.164;-3.124;2023-05-20T15:00:20;13.63;;;9.38;;
47009;SDS011;59230;54.164;-3.124;2023-05-20T15:02:46;13.23;;;9.43;;
47009;SDS011;59230;54.164;-3.124;2023-05-20T15:05:11;13.82;;;9.05;;
47009;SDS011;59230;54.164;-3.124;2023-05-20T15:07:37;14.32;;;9.10;;
47009;SDS011;59230;54.164;-3.124;2023-05-20T15:10:02;13.27;;;8.63;;
47009;SDS011;59230;54.164;-3.124;2023-05-20T15:12:28;17.45;;;9.35;;
47009;SDS011;59230;54.164;-3.124;2023-05-20T15:14:53;14.05;;;8.52;;
47009;SDS011;59230;54.164;-3.124;2023-05-20T15:17:19;14.52;;;8.73;;
47009;SDS011;59230;54.164;-3.124;2023-05-20T15:19:44;15.27;;;9.00;;
47009;SDS011;59230;54.164;-3.124;2023-05-20T15:22:10;16.20;;;8.80;;
47009;SDS011;59230;54.164;-3.124;2023-05-20T15:24:35;12.70;;;7.75;;
47009;SDS011;59230;54.164;-3.124;2023-05-20T15:27:01;13.80;;;7.57;;
47009;SDS011;59230;54.164;-3.124;2023-05-20T15:29:26;14.30;;;8.30;;
47009;SDS011;59230;54.164;-3.124;2023-05-20T15:31:52;16.40;;;9.07;;
47009;SDS011;59230;54.164;-3.124;2023-05-20T15:34:17;11.82;;;8.38;;
47009;SDS011;59230;54.164;-3.124;2023-05-20T15:36:42;14.98;;;8.43;;
47009;SDS011;59230;54.164;-3.124;2023-05-20T15:39:08;14.80;;;9.50;;
47009;SDS011;59230;54.164;-3.124;2023-05-20T15:41:33;12.93;;;8.00;;
47009;SDS011;59230;54.164;-3.124;2023-05-20T15:44:01;12.43;;;8.65;;
47009;SDS011;59230;54.164;-3.124;2023-05-20T15:46:27;14.75;;;8.40;;
47009;SDS011;59230;54.164;-3.124;2023-05-20T15:48:52;13.90;;;8.85;;
47009;SDS011;59230;54.164;-3.124;2023-05-20T15:51:20;20.67;;;8.43;;
47009;SDS011;59230;54.164;-3.124;2023-05-20T15:53:45;14.25;;;7.30;;
47009;SDS011;59230;54.164;-3.124;2023-05-20T15:56:10;10.48;;;7.03;;
47009;SDS011;59230;54.164;-3.124;2023-05-20T15:58:36;14.02;;;7.20;;
47009;SDS011;59230;54.164;-3.124;2023-05-20T16:01:02;13.70;;;8.38;;
47009;SDS011;59230;54.164;-3.124;2023-05-20T16:03:27;14.00;;;7.95;;
47009;SDS011;59230;54.164;-3.124;2023-05-20T16:05:53;13.63;;;8.13;;
47009;SDS011;59230;54.164;-3.124;2023-05-20T16:08:19;15.23;;;8.57;;
47009;SDS011;59230;54.164;-3.124;2023-05-20T16:10:47;19.00;;;8.02;;
47009;SDS011;59230;54.164;-3.124;2023-05-20T16:13:13;15.68;;;7.97;;